sensor_id;sensor_type;location;lat;lon;timestamp;pressure;altitude;pressure_sealevel;temperature;humidity
73297;BME280;61524;50.938;11.396;2023-05-14T00:02:25;99328.81;;;13.48;83.61
73297;BME280;61524;50.938;11.396;2023-05-14T00:04:51;99317.56;;;13.51;83.86
73297;BME280;61524;50.938;11.396;2023-05-14T00:07:17;99334.63;;;13.39;84.32
73297;BME280;61524;50.938;11.396;2023-05-14T00:09:42;99327.66;;;13.38;84.13
73297;BME280;61524;50.938;11.396;2023-05-14T00:12:08;99316.38;;;13.36;83.36
73297;BME280;61524;50.938;11.396;2023-05-14T00:14:33;99317.56;;;13.51;83.01
73297;BME280;61524;50.938;11.396;2023-05-14T00:16:59;99316.69;;;13.40;83.25
73297;BME280;61524;50.938;11.396;2023-05-14T00:19:25;99305.38;;;13.38;83.58
73297;BME280;61524;50.938;11.396;2023-05-14T00:21:50;99320.63;;;13.32;84.18
73297;BME280;61524;50.938;11.396;2023-05-14T00:24:16;99325.50;;;13.35;83.50
73297;BME280;61524;50.938;11.396;2023-05-14T00:26:41;99317.88;;;13.22;84.03
73297;BME280;61524;50.938;11.396;2023-05-14T00:29:07;99314.53;;;13.10;84.42
73297;BME280;61524;50.938;11.396;2023-05-14T00:31:32;99302.47;;;13.12;85.38
73297;BME280;61524;50.938;11.396;2023-05-14T00:33:57;99300.78;;;13.01;85.45
73297;BME280;61524;50.938;11.396;2023-05-14T00:36:23;99312.25;;;12.97;85.73
73297;BME280;61524;50.938;11.396;2023-05-14T00:38:48;99307.66;;;12.87;85.60
73297;BME280;61524;50.938;11.396;2023-05-14T00:41:14;99314.16;;;12.69;85.93
73297;BME280;61524;50.938;11.396;2023-05-14T00:43:39;99305.03;;;12.65;86.21
73297;BME280;61524;50.938;11.396;2023-05-14T00:46:05;99312.75;;;12.61;85.78
73297;BME280;61524;50.938;11.396;2023-05-14T00:48:30;99317.25;;;12.56;86.08
73297;BME280;61524;50.938;11.396;2023-05-14T00:50:56;99311.44;;;12.64;85.90
73297;BME280;61524;50.938;11.396;2023-05-14T00:53:22;99316.94;;;12.52;86.12
73297;BME280;61524;50.938;11.396;2023-05-14T00:55:48;99316.47;;;12.55;85.92
73297;BME280;61524;50.938;11.396;2023-05-14T00:58:14;99317.69;;;12.48;86.37
73297;BME280;61524;50.938;11.396;2023-05-14T01:00:40;99313.13;;;12.43;86.57
73297;BME280;61524;50.938;11.396;2023-05-14T01:03:06;99314.22;;;12.47;86.68
73297;BME280;61524;50.938;11.396;2023-05-14T01:08:55;99319.66;;;12.30;87.00
73297;BME280;61524;50.938;11.396;2023-05-14T01:11:39;99312.69;;;12.29;86.99
73297;BME280;61524;50.938;11.396;2023-05-14T01:16:57;99314.31;;;12.08;88.30
73297;BME280;61524;50.938;11.396;2023-05-14T01:19:40;99317.59;;;11.94;88.43
73297;BME280;61524;50.938;11.396;2023-05-14T01:22:06;99302.06;;;11.91;87.93
73297;BME280;61524;50.938;11.396;2023-05-14T01:24:32;99303.66;;;11.92;88.30
73297;BME280;61524;50.938;11.396;2023-05-14T01:27:24;99318.44;;;11.77;88.18
73297;BME280;61524;50.938;11.396;2023-05-14T01:30:12;99308.41;;;11.85;88.18
73297;BME280;61524;50.938;11.396;2023-05-14T01:32:40;99296.00;;;11.62;88.45
73297;BME280;61524;50.938;11.396;2023-05-14T01:35:09;99308.56;;;11.61;88.28
73297;BME280;61524;50.938;11.396;2023-05-14T01:37:35;99305.34;;;11.59;87.92
73297;BME280;61524;50.938;11.396;2023-05-14T01:40:01;99303.72;;;11.58;87.49
73297;BME280;61524;50.938;11.396;2023-05-14T01:42:27;99303.22;;;11.61;87.56
73297;BME280;61524;50.938;11.396;2023-05-14T01:44:53;99301.22;;;11.51;88.21
73297;BME280;61524;50.938;11.396;2023-05-14T01:47:19;99306.25;;;11.48;87.60
73297;BME280;61524;50.938;11.396;2023-05-14T01:49:45;99301.47;;;11.50;87.41
73297;BME280;61524;50.938;11.396;2023-05-14T01:52:10;99295.97;;;11.40;88.10
73297;BME280;61524;50.938;11.396;2023-05-14T01:54:36;99301.81;;;11.37;88.23
73297;BME280;61524;50.938;11.396;2023-05-14T01:57:01;99303.13;;;11.17;88.24
73297;BME280;61524;50.938;11.396;2023-05-14T01:59:27;99311.66;;;11.14;88.69
73297;BME280;61524;50.938;11.396;2023-05-14T02:01:54;99309.53;;;10.99;88.63
73297;BME280;61524;50.938;11.396;2023-05-14T02:04:20;99296.78;;;10.90;89.29
73297;BME280;61524;50.938;11.396;2023-05-14T02:06:45;99293.88;;;10.91;88.63
73297;BME280;61524;50.938;11.396;2023-05-14T02:09:10;99293.88;;;10.91;88.03
73297;BME280;61524;50.938;11.396;2023-05-14T02:11:36;99301.09;;;10.91;88.19
73297;BME280;61524;50.938;11.396;2023-05-14T02:14:01;99292.09;;;10.80;88.07
73297;BME280;61524;50.938;11.396;2023-05-14T02:16:27;99302.78;;;10.80;88.65
73297;BME280;61524;50.938;11.396;2023-05-14T02:18:52;99294.28;;;10.66;89.20
73297;BME280;61524;50.938;11.396;2023-05-14T02:21:18;99285.47;;;10.54;88.84
73297;BME280;61524;50.938;11.396;2023-05-14T02:23:43;99301.09;;;10.45;89.21
73297;BME280;61524;50.938;11.396;2023-05-14T02:26:09;99290.81;;;10.54;88.03
73297;BME280;61524;50.938;11.396;2023-05-14T02:28:35;99287.69;;;10.57;87.82
73297;BME280;61524;50.938;11.396;2023-05-14T02:31:00;99291.56;;;10.49;89.20
73297;BME280;61524;50.938;11.396;2023-05-14T02:33:26;99295.50;;;10.47;88.89
73297;BME280;61524;50.938;11.396;2023-05-14T02:35:52;99287.91;;;10.39;88.33
73297;BME280;61524;50.938;11.396;2023-05-14T02:38:18;99285.13;;;10.34;88.84
73297;BME280;61524;50.938;11.396;2023-05-14T02:40:44;99285.59;;;10.31;89.06
73297;BME280;61524;50.938;11.396;2023-05-14T02:43:09;99288.53;;;10.17;89.43
73297;BME280;61524;50.938;11.396;2023-05-14T02:45:35;99289.22;;;10.24;88.91
73297;BME280;61524;50.938;11.396;2023-05-14T02:48:00;99281.03;;;10.03;89.10
73297;BME280;61524;50.938;11.396;2023-05-14T02:50:26;99290.16;;;10.18;89.93
73297;BME280;61524;50.938;11.396;2023-05-14T02:52:51;99289.00;;;10.14;89.38
73297;BME280;61524;50.938;11.396;2023-05-14T02:55:17;99283.50;;;10.21;88.70
73297;BME280;61524;50.938;11.396;2023-05-14T02:57:42;99284.09;;;10.35;88.90
73297;BME280;61524;50.938;11.396;2023-05-14T03:00:08;99277.94;;;10.34;89.16
73297;BME280;61524;50.938;11.396;2023-05-14T03:02:34;99281.22;;;10.24;89.43
73297;BME280;61524;50.938;11.396;2023-05-14T03:05:00;99273.56;;;10.28;89.21
73297;BME280;61524;50.938;11.396;2023-05-14T03:07:25;99270.13;;;10.33;88.13
73297;BME280;61524;50.938;11.396;2023-05-14T03:09:51;99276.63;;;10.37;88.63
73297;BME280;61524;50.938;11.396;2023-05-14T03:12:16;99277.31;;;10.44;87.95
73297;BME280;61524;50.938;11.396;2023-05-14T03:14:42;99271.78;;;10.34;88.88
73297;BME280;61524;50.938;11.396;2023-05-14T03:17:08;99270.00;;;10.39;88.15
73297;BME280;61524;50.938;11.396;2023-05-14T03:19:34;99269.84;;;10.46;88.08
73297;BME280;61524;50.938;11.396;2023-05-14T03:21:59;99275.47;;;10.33;88.17
73297;BME280;61524;50.938;11.396;2023-05-14T03:24:25;99259.69;;;10.31;88.60
73297;BME280;61524;50.938;11.396;2023-05-14T03:26:50;99250.53;;;10.27;89.28
73297;BME280;61524;50.938;11.396;2023-05-14T03:29:16;99263.59;;;10.12;89.08
73297;BME280;61524;50.938;11.396;2023-05-14T03:31:42;99258.00;;;10.13;89.13
73297;BME280;61524;50.938;11.396;2023-05-14T03:34:08;99255.91;;;10.15;88.94
73297;BME280;61524;50.938;11.396;2023-05-14T03:36:33;99260.69;;;10.13;88.80
73297;BME280;61524;50.938;11.396;2023-05-14T03:39:00;99246.84;;;10.16;89.00
73297;BME280;61524;50.938;11.396;2023-05-14T03:41:26;99255.16;;;10.03;88.72
73297;BME280;61524;50.938;11.396;2023-05-14T03:43:51;99260.34;;;10.10;89.27
73297;BME280;61524;50.938;11.396;2023-05-14T03:46:17;99251.47;;;10.21;88.63
73297;BME280;61524;50.938;11.396;2023-05-14T03:48:42;99255.09;;;10.15;89.12
73297;BME280;61524;50.938;11.396;2023-05-14T03:51:08;99260.28;;;10.33;88.83
73297;BME280;61524;50.938;11.396;2023-05-14T03:53:33;99260.03;;;10.35;88.51
73297;BME280;61524;50.938;11.396;2023-05-14T03:55:58;99253.56;;;10.31;89.26
73297;BME280;61524;50.938;11.396;2023-05-14T03:58:24;99255.97;;;10.32;88.98
73297;BME280;61524;50.938;11.396;2023-05-14T04:00:50;99256.09;;;10.54;87.01
73297;BME280;61524;50.938;11.396;2023-05-14T04:03:15;99256.41;;;10.41;87.54
73297;BME280;61524;50.938;11.396;2023-05-14T04:05:41;99263.22;;;10.48;87.34
73297;BME280;61524;50.938;11.396;2023-05-14T04:08:06;99258.94;;;10.64;87.02
73297;BME280;61524;50.938;11.396;2023-05-14T04:10:32;99261.88;;;10.80;86.59
73297;BME280;61524;50.938;11.396;2023-05-14T04:12:57;99266.50;;;10.84;87.58
73297;BME280;61524;50.938;11.396;2023-05-14T04:15:23;99261.78;;;10.91;87.40
73297;BME280;61524;50.938;11.396;2023-05-14T04:17:48;99258.31;;;10.91;86.99
73297;BME280;61524;50.938;11.396;2023-05-14T04:20:13;99257.25;;;10.92;87.49
73297;BME280;61524;50.938;11.396;2023-05-14T04:22:39;99255.47;;;10.97;88.32
73297;BME280;61524;50.938;11.396;2023-05-14T04:25:05;99260.69;;;11.04;86.66
73297;BME280;61524;50.938;11.396;2023-05-14T04:27:32;99256.44;;;11.08;87.11
73297;BME280;61524;50.938;11.396;2023-05-14T04:29:58;99244.22;;;11.12;86.91
73297;BME280;61524;50.938;11.396;2023-05-14T04:32:23;99258.88;;;11.26;86.76
73297;BME280;61524;50.938;11.396;2023-05-14T04:34:49;99248.75;;;11.50;86.00
73297;BME280;61524;50.938;11.396;2023-05-14T04:37:15;99250.94;;;11.92;85.09
73297;BME280;61524;50.938;11.396;2023-05-14T04:39:40;99252.41;;;11.83;84.62
73297;BME280;61524;50.938;11.396;2023-05-14T04:42:06;99244.47;;;11.71;85.13
73297;BME280;61524;50.938;11.396;2023-05-14T04:44:33;99247.09;;;11.66;84.29
73297;BME280;61524;50.938;11.396;2023-05-14T04:46:58;99242.31;;;11.68;84.97
73297;BME280;61524;50.938;11.396;2023-05-14T04:49:24;99245.00;;;11.68;85.05
73297;BME280;61524;50.938;11.396;2023-05-14T04:51:49;99252.41;;;11.83;83.75
73297;BME280;61524;50.938;11.396;2023-05-14T04:54:15;99243.09;;;11.86;84.25
73297;BME280;61524;50.938;11.396;2023-05-14T04:56:40;99249.16;;;12.03;83.22
73297;BME280;61524;50.938;11.396;2023-05-14T04:59:06;99247.84;;;12.27;82.57
73297;BME280;61524;50.938;11.396;2023-05-14T05:01:31;99254.13;;;12.38;82.10
73297;BME280;61524;50.938;11.396;2023-05-14T05:03:57;99262.59;;;12.89;81.67
73297;BME280;61524;50.938;11.396;2023-05-14T05:06:22;99258.88;;;12.95;80.33
73297;BME280;61524;50.938;11.396;2023-05-14T05:08:48;99260.28;;;13.35;80.20
73297;BME280;61524;50.938;11.396;2023-05-14T05:11:13;99241.97;;;13.74;78.22
73297;BME280;61524;50.938;11.396;2023-05-14T05:13:39;99250.75;;;14.37;75.48
73297;BME280;61524;50.938;11.396;2023-05-14T05:16:05;99255.56;;;15.73;71.51
73297;BME280;61524;50.938;11.396;2023-05-14T05:18:31;99263.09;;;15.71;71.62
73297;BME280;61524;50.938;11.396;2023-05-14T05:20:56;99254.69;;;15.88;70.74
73297;BME280;61524;50.938;11.396;2023-05-14T05:23:21;99252.00;;;15.88;71.58
73297;BME280;61524;50.938;11.396;2023-05-14T05:25:48;99258.94;;;16.48;70.16
73297;BME280;61524;50.938;11.396;2023-05-14T05:28:13;99250.44;;;16.70;68.74
73297;BME280;61524;50.938;11.396;2023-05-14T05:30:39;99257.03;;;16.54;68.82
73297;BME280;61524;50.938;11.396;2023-05-14T05:33:04;99244.78;;;16.72;68.46
73297;BME280;61524;50.938;11.396;2023-05-14T05:35:30;99238.84;;;16.31;69.61
73297;BME280;61524;50.938;11.396;2023-05-14T05:37:56;99234.72;;;16.43;69.56
73297;BME280;61524;50.938;11.396;2023-05-14T05:40:22;99260.31;;;15.91;70.98
73297;BME280;61524;50.938;11.396;2023-05-14T05:42:47;99255.59;;;16.22;71.93
73297;BME280;61524;50.938;11.396;2023-05-14T05:45:13;99260.56;;;16.49;70.77
73297;BME280;61524;50.938;11.396;2023-05-14T05:47:38;99253.53;;;16.53;71.30
73297;BME280;61524;50.938;11.396;2023-05-14T05:50:04;99254.41;;;16.39;70.96
73297;BME280;61524;50.938;11.396;2023-05-14T05:52:30;99256.38;;;16.67;71.59
73297;BME280;61524;50.938;11.396;2023-05-14T05:54:55;99257.31;;;16.52;71.81
73297;BME280;61524;50.938;11.396;2023-05-14T05:57:21;99254.28;;;16.59;69.92
73297;BME280;61524;50.938;11.396;2023-05-14T05:59:47;99245.97;;;16.50;70.79
73297;BME280;61524;50.938;11.396;2023-05-14T06:02:13;99245.31;;;16.69;71.35
73297;BME280;61524;50.938;11.396;2023-05-14T06:04:38;99249.47;;;16.51;71.18
73297;BME280;61524;50.938;11.396;2023-05-14T06:07:04;99236.94;;;16.31;71.66
73297;BME280;61524;50.938;11.396;2023-05-14T06:09:29;99242.75;;;16.48;72.39
73297;BME280;61524;50.938;11.396;2023-05-14T06:11:55;99249.69;;;16.60;71.23
73297;BME280;61524;50.938;11.396;2023-05-14T06:14:20;99254.91;;;16.46;69.85
73297;BME280;61524;50.938;11.396;2023-05-14T06:16:46;99255.13;;;16.94;68.74
73297;BME280;61524;50.938;11.396;2023-05-14T06:19:11;99261.84;;;17.25;67.00
73297;BME280;61524;50.938;11.396;2023-05-14T06:21:37;99257.59;;;17.19;65.71
73297;BME280;61524;50.938;11.396;2023-05-14T06:24:02;99248.25;;;17.59;65.44
73297;BME280;61524;50.938;11.396;2023-05-14T06:26:28;99250.13;;;17.88;64.81
73297;BME280;61524;50.938;11.396;2023-05-14T06:28:53;99249.34;;;18.06;64.23
73297;BME280;61524;50.938;11.396;2023-05-14T06:31:19;99244.03;;;17.77;65.20
73297;BME280;61524;50.938;11.396;2023-05-14T06:33:44;99241.09;;;17.74;63.64
73297;BME280;61524;50.938;11.396;2023-05-14T06:36:10;99238.38;;;16.97;65.97
73297;BME280;61524;50.938;11.396;2023-05-14T06:38:35;99227.69;;;17.40;65.36
73297;BME280;61524;50.938;11.396;2023-05-14T06:41:01;99221.72;;;18.28;62.00
73297;BME280;61524;50.938;11.396;2023-05-14T06:43:27;99231.00;;;19.11;60.33
73297;BME280;61524;50.938;11.396;2023-05-14T06:45:53;99230.97;;;19.72;57.83
73297;BME280;61524;50.938;11.396;2023-05-14T06:48:19;99212.78;;;19.86;57.07
73297;BME280;61524;50.938;11.396;2023-05-14T06:50:45;99212.88;;;18.79;60.23
73297;BME280;61524;50.938;11.396;2023-05-14T06:53:11;99212.16;;;18.36;63.73
73297;BME280;61524;50.938;11.396;2023-05-14T06:55:37;99217.44;;;18.46;63.10
73297;BME280;61524;50.938;11.396;2023-05-14T06:58:04;99223.47;;;19.08;58.90
73297;BME280;61524;50.938;11.396;2023-05-14T07:00:30;99218.66;;;18.16;61.30
73297;BME280;61524;50.938;11.396;2023-05-14T07:02:56;99224.00;;;17.30;64.18
73297;BME280;61524;50.938;11.396;2023-05-14T07:05:21;99219.69;;;17.53;63.04
73297;BME280;61524;50.938;11.396;2023-05-14T07:07:46;99223.06;;;19.15;59.22
73297;BME280;61524;50.938;11.396;2023-05-14T07:10:12;99216.69;;;20.66;56.21
73297;BME280;61524;50.938;11.396;2023-05-14T07:12:37;99207.63;;;21.64;54.66
73297;BME280;61524;50.938;11.396;2023-05-14T07:15:03;99217.22;;;22.53;53.41
73297;BME280;61524;50.938;11.396;2023-05-14T07:17:29;99214.66;;;22.48;52.81
73297;BME280;61524;50.938;11.396;2023-05-14T07:19:54;99215.47;;;22.22;51.75
73297;BME280;61524;50.938;11.396;2023-05-14T07:22:20;99207.91;;;22.71;51.06
73297;BME280;61524;50.938;11.396;2023-05-14T07:24:46;99201.03;;;23.29;48.66
73297;BME280;61524;50.938;11.396;2023-05-14T07:27:11;99209.16;;;23.47;49.96
73297;BME280;61524;50.938;11.396;2023-05-14T07:29:37;99192.25;;;24.33;48.19
73297;BME280;61524;50.938;11.396;2023-05-14T07:32:03;99203.72;;;22.74;50.01
73297;BME280;61524;50.938;11.396;2023-05-14T07:34:28;99191.91;;;22.52;52.79
73297;BME280;61524;50.938;11.396;2023-05-14T07:36:54;99191.25;;;22.21;53.79
73297;BME280;61524;50.938;11.396;2023-05-14T07:39:19;99179.56;;;23.28;48.41
73297;BME280;61524;50.938;11.396;2023-05-14T07:41:45;99187.19;;;23.05;50.40
73297;BME280;61524;50.938;11.396;2023-05-14T07:44:10;99183.56;;;22.66;50.00
73297;BME280;61524;50.938;11.396;2023-05-14T07:46:36;99175.75;;;23.50;50.27
73297;BME280;61524;50.938;11.396;2023-05-14T07:49:01;99176.84;;;22.20;51.53
73297;BME280;61524;50.938;11.396;2023-05-14T07:51:26;99181.06;;;20.90;54.04
73297;BME280;61524;50.938;11.396;2023-05-14T07:53:53;99177.38;;;20.41;55.90
73297;BME280;61524;50.938;11.396;2023-05-14T07:56:20;99173.81;;;21.39;55.21
73297;BME280;61524;50.938;11.396;2023-05-14T07:58:46;99156.03;;;20.48;55.91
73297;BME280;61524;50.938;11.396;2023-05-14T08:01:11;99165.66;;;21.39;55.61
73297;BME280;61524;50.938;11.396;2023-05-14T08:03:37;99167.16;;;20.91;56.02
73297;BME280;61524;50.938;11.396;2023-05-14T08:06:03;99167.22;;;21.31;54.01
73297;BME280;61524;50.938;11.396;2023-05-14T08:08:28;99162.13;;;20.31;55.50
73297;BME280;61524;50.938;11.396;2023-05-14T08:10:54;99159.28;;;19.50;57.26
73297;BME280;61524;50.938;11.396;2023-05-14T08:13:20;99159.28;;;20.36;55.90
73297;BME280;61524;50.938;11.396;2023-05-14T08:15:45;99157.56;;;20.18;57.18
73297;BME280;61524;50.938;11.396;2023-05-14T08:18:11;99164.38;;;20.52;57.21
73297;BME280;61524;50.938;11.396;2023-05-14T08:20:36;99160.19;;;20.09;58.29
73297;BME280;61524;50.938;11.396;2023-05-14T08:23:02;99151.34;;;20.62;56.99
73297;BME280;61524;50.938;11.396;2023-05-14T08:25:27;99159.75;;;19.80;58.62
73297;BME280;61524;50.938;11.396;2023-05-14T08:27:53;99169.06;;;19.05;60.99
73297;BME280;61524;50.938;11.396;2023-05-14T08:30:19;99153.44;;;19.15;61.51
73297;BME280;61524;50.938;11.396;2023-05-14T08:32:44;99149.78;;;20.03;60.49
73297;BME280;61524;50.938;11.396;2023-05-14T08:35:10;99154.75;;;20.99;57.74
73297;BME280;61524;50.938;11.396;2023-05-14T08:37:35;99149.03;;;19.61;59.54
73297;BME280;61524;50.938;11.396;2023-05-14T08:40:01;99150.75;;;19.29;59.99
73297;BME280;61524;50.938;11.396;2023-05-14T08:42:27;99151.25;;;20.31;59.04
73297;BME280;61524;50.938;11.396;2023-05-14T08:44:59;99156.13;;;20.43;57.19
73297;BME280;61524;50.938;11.396;2023-05-14T08:47:28;99147.19;;;19.84;58.57
73297;BME280;61524;50.938;11.396;2023-05-14T08:50:01;99149.47;;;20.04;58.36
73297;BME280;61524;50.938;11.396;2023-05-14T08:52:31;99144.03;;;20.71;56.99
73297;BME280;61524;50.938;11.396;2023-05-14T08:55:04;99139.47;;;20.13;58.29
73297;BME280;61524;50.938;11.396;2023-05-14T08:57:33;99137.13;;;20.21;58.98
73297;BME280;61524;50.938;11.396;2023-05-14T08:59:59;99130.81;;;20.48;58.34
73297;BME280;61524;50.938;11.396;2023-05-14T09:02:29;99137.25;;;21.22;58.45
73297;BME280;61524;50.938;11.396;2023-05-14T09:05:00;99117.00;;;20.89;61.95
73297;BME280;61524;50.938;11.396;2023-05-14T09:07:26;99129.28;;;20.86;55.43
73297;BME280;61524;50.938;11.396;2023-05-14T09:09:52;99129.13;;;20.91;55.65
73297;BME280;61524;50.938;11.396;2023-05-14T09:12:18;99134.22;;;19.95;56.73
73297;BME280;61524;50.938;11.396;2023-05-14T09:14:44;99119.03;;;19.30;59.72
73297;BME280;61524;50.938;11.396;2023-05-14T09:17:10;99121.34;;;19.09;58.04
73297;BME280;61524;50.938;11.396;2023-05-14T09:19:39;99113.19;;;19.50;60.20
73297;BME280;61524;50.938;11.396;2023-05-14T09:22:08;99123.59;;;19.84;54.98
73297;BME280;61524;50.938;11.396;2023-05-14T09:24:34;99124.91;;;19.87;56.31
73297;BME280;61524;50.938;11.396;2023-05-14T09:27:01;99117.78;;;20.13;53.96
73297;BME280;61524;50.938;11.396;2023-05-14T09:29:28;99118.13;;;19.98;54.53
73297;BME280;61524;50.938;11.396;2023-05-14T09:31:54;99123.59;;;19.84;54.15
73297;BME280;61524;50.938;11.396;2023-05-14T09:34:28;99111.06;;;19.47;58.27
73297;BME280;61524;50.938;11.396;2023-05-14T09:37:05;99093.16;;;19.87;54.63
73297;BME280;61524;50.938;11.396;2023-05-14T09:39:33;99116.78;;;20.09;53.54
73297;BME280;61524;50.938;11.396;2023-05-14T09:42:01;99109.44;;;20.55;54.16
73297;BME280;61524;50.938;11.396;2023-05-14T09:44:26;99110.38;;;20.28;52.35
73297;BME280;61524;50.938;11.396;2023-05-14T09:46:52;99103.63;;;19.80;53.70
73297;BME280;61524;50.938;11.396;2023-05-14T09:49:18;99106.16;;;19.77;54.53
73297;BME280;61524;50.938;11.396;2023-05-14T09:51:44;99091.44;;;19.91;54.71
73297;BME280;61524;50.938;11.396;2023-05-14T09:54:10;99099.94;;;20.21;56.22
73297;BME280;61524;50.938;11.396;2023-05-14T09:56:36;99101.19;;;19.01;60.99
73297;BME280;61524;50.938;11.396;2023-05-14T09:59:02;99093.97;;;19.10;59.95
73297;BME280;61524;50.938;11.396;2023-05-14T10:01:29;99097.66;;;19.28;59.55
73297;BME280;61524;50.938;11.396;2023-05-14T10:03:55;99098.56;;;19.65;59.76
73297;BME280;61524;50.938;11.396;2023-05-14T10:06:24;99088.13;;;19.45;58.94
73297;BME280;61524;50.938;11.396;2023-05-14T10:08:53;99085.41;;;19.45;58.95
73297;BME280;61524;50.938;11.396;2023-05-14T10:11:23;99071.31;;;19.56;59.29
73297;BME280;61524;50.938;11.396;2023-05-14T10:16:28;99085.44;;;19.81;58.11
73297;BME280;61524;50.938;11.396;2023-05-14T10:19:00;99082.31;;;20.86;54.92
73297;BME280;61524;50.938;11.396;2023-05-14T10:21:31;99082.44;;;20.27;57.36
73297;BME280;61524;50.938;11.396;2023-05-14T10:23:59;99088.72;;;20.59;55.64
73297;BME280;61524;50.938;11.396;2023-05-14T10:26:24;99071.66;;;20.13;58.71
73297;BME280;61524;50.938;11.396;2023-05-14T10:28:50;99078.56;;;20.19;55.23
73297;BME280;61524;50.938;11.396;2023-05-14T10:31:15;99074.44;;;19.63;59.17
73297;BME280;61524;50.938;11.396;2023-05-14T10:33:50;99073.25;;;19.42;58.38
73297;BME280;61524;50.938;11.396;2023-05-14T10:36:17;99072.75;;;19.90;59.89
73297;BME280;61524;50.938;11.396;2023-05-14T10:38:43;99075.50;;;20.43;57.48
73297;BME280;61524;50.938;11.396;2023-05-14T10:41:16;99076.16;;;20.40;55.47
73297;BME280;61524;50.938;11.396;2023-05-14T10:43:45;99069.53;;;20.33;55.67
73297;BME280;61524;50.938;11.396;2023-05-14T10:46:12;99065.50;;;19.99;54.82
73297;BME280;61524;50.938;11.396;2023-05-14T10:48:40;99058.53;;;20.60;56.11
73297;BME280;61524;50.938;11.396;2023-05-14T10:51:10;99066.47;;;21.36;52.82
73297;BME280;61524;50.938;11.396;2023-05-14T10:53:41;99054.81;;;21.36;50.75
73297;BME280;61524;50.938;11.396;2023-05-14T10:56:12;99059.69;;;20.99;55.94
73297;BME280;61524;50.938;11.396;2023-05-14T10:58:39;99052.25;;;20.82;51.50
73297;BME280;61524;50.938;11.396;2023-05-14T11:01:06;99057.63;;;20.42;51.71
73297;BME280;61524;50.938;11.396;2023-05-14T11:03:38;99048.19;;;21.19;52.83
73297;BME280;61524;50.938;11.396;2023-05-14T11:06:05;99034.22;;;20.86;51.92
73297;BME280;61524;50.938;11.396;2023-05-14T11:08:31;99034.38;;;21.90;52.67
73297;BME280;61524;50.938;11.396;2023-05-14T11:10:57;99030.38;;;21.88;51.44
73297;BME280;61524;50.938;11.396;2023-05-14T11:13:25;99032.94;;;22.10;51.91
73297;BME280;61524;50.938;11.396;2023-05-14T11:15:54;99030.69;;;21.78;55.47
73297;BME280;61524;50.938;11.396;2023-05-14T11:18:31;99031.34;;;21.66;54.53
73297;BME280;61524;50.938;11.396;2023-05-14T11:20:59;99018.97;;;22.29;53.69
73297;BME280;61524;50.938;11.396;2023-05-14T11:23:25;99028.91;;;22.34;51.94
73297;BME280;61524;50.938;11.396;2023-05-14T11:25:51;99022.38;;;22.17;49.84
73297;BME280;61524;50.938;11.396;2023-05-14T11:28:20;99020.50;;;22.47;51.63
73297;BME280;61524;50.938;11.396;2023-05-14T11:30:46;99012.41;;;22.68;50.47
73297;BME280;61524;50.938;11.396;2023-05-14T11:33:12;99007.75;;;22.77;48.85
73297;BME280;61524;50.938;11.396;2023-05-14T11:35:38;99020.66;;;22.51;49.48
73297;BME280;61524;50.938;11.396;2023-05-14T11:38:03;99014.84;;;21.36;51.41
73297;BME280;61524;50.938;11.396;2023-05-14T11:40:29;99015.66;;;21.89;50.02
73297;BME280;61524;50.938;11.396;2023-05-14T11:42:54;98998.66;;;21.22;52.17
73297;BME280;61524;50.938;11.396;2023-05-14T11:45:25;98996.94;;;20.38;53.78
73297;BME280;61524;50.938;11.396;2023-05-14T11:47:51;99000.84;;;20.46;54.68
73297;BME280;61524;50.938;11.396;2023-05-14T11:50:18;99000.63;;;20.11;53.37
73297;BME280;61524;50.938;11.396;2023-05-14T11:52:43;98983.81;;;20.32;54.07
73297;BME280;61524;50.938;11.396;2023-05-14T11:55:12;98987.75;;;20.88;52.63
73297;BME280;61524;50.938;11.396;2023-05-14T11:57:37;98988.00;;;21.35;53.58
73297;BME280;61524;50.938;11.396;2023-05-14T12:00:03;98984.56;;;20.94;53.79
73297;BME280;61524;50.938;11.396;2023-05-14T12:02:31;98985.75;;;21.54;51.15
73297;BME280;61524;50.938;11.396;2023-05-14T12:04:59;98982.19;;;21.88;51.50
73297;BME280;61524;50.938;11.396;2023-05-14T12:07:27;98976.28;;;21.17;52.20
73297;BME280;61524;50.938;11.396;2023-05-14T12:09:53;98984.81;;;20.76;52.03
73297;BME280;61524;50.938;11.396;2023-05-14T12:12:20;98984.72;;;21.07;52.05
73297;BME280;61524;50.938;11.396;2023-05-14T12:14:46;98980.31;;;20.71;52.34
73297;BME280;61524;50.938;11.396;2023-05-14T12:17:17;98981.34;;;20.13;53.71
73297;BME280;61524;50.938;11.396;2023-05-14T12:19:44;98988.22;;;20.50;53.92
73297;BME280;61524;50.938;11.396;2023-05-14T12:22:10;98981.84;;;20.46;52.93
73297;BME280;61524;50.938;11.396;2023-05-14T12:24:36;98976.88;;;20.88;53.80
73297;BME280;61524;50.938;11.396;2023-05-14T12:27:03;98972.63;;;21.73;51.38
73297;BME280;61524;50.938;11.396;2023-05-14T12:29:29;98981.19;;;20.89;51.62
73297;BME280;61524;50.938;11.396;2023-05-14T12:31:56;98967.28;;;20.90;50.88
73297;BME280;61524;50.938;11.396;2023-05-14T12:34:23;98971.63;;;21.17;52.88
73297;BME280;61524;50.938;11.396;2023-05-14T12:36:48;98981.22;;;21.06;51.59
73297;BME280;61524;50.938;11.396;2023-05-14T12:39:14;98975.22;;;20.69;52.53
73297;BME280;61524;50.938;11.396;2023-05-14T12:41:39;98970.56;;;20.61;53.33
73297;BME280;61524;50.938;11.396;2023-05-14T12:44:05;98967.94;;;21.13;51.12
73297;BME280;61524;50.938;11.396;2023-05-14T12:46:31;98966.06;;;20.26;51.46
73297;BME280;61524;50.938;11.396;2023-05-14T12:48:57;98962.06;;;20.54;52.01
73297;BME280;61524;50.938;11.396;2023-05-14T12:51:22;98956.88;;;20.92;50.30
73297;BME280;61524;50.938;11.396;2023-05-14T12:53:48;98960.31;;;21.15;50.22
73297;BME280;61524;50.938;11.396;2023-05-14T12:56:16;98956.50;;;21.34;51.27